createdAt,value
2023-06-17T00:00:00.462Z,17.15
2023-06-17T00:02:28.282Z,17.15
2023-06-17T00:04:56.109Z,17.12
2023-06-17T00:07:24.244Z,17.08
2023-06-17T00:09:52.035Z,17.05
2023-06-17T00:12:19.817Z,17.02
2023-06-17T00:14:48.146Z,17.00
2023-06-17T00:17:17.303Z,16.98
2023-06-17T00:19:45.116Z,16.98
2023-06-17T00:22:12.953Z,16.97
2023-06-17T00:24:40.885Z,16.96
2023-06-17T00:27:08.760Z,16.94
2023-06-17T00:29:37.364Z,16.91
2023-06-17T00:32:05.261Z,16.89
2023-06-17T00:34:34.641Z,16.88
2023-06-17T00:37:02.680Z,16.87
2023-06-17T00:39:30.442Z,16.84
2023-06-17T00:41:58.410Z,16.82
2023-06-17T00:44:26.202Z,16.82
2023-06-17T00:46:54.002Z,16.79
2023-06-17T00:49:21.810Z,16.77
2023-06-17T00:52:00.274Z,16.75
2023-06-17T00:54:38.221Z,16.73
2023-06-17T00:57:09.186Z,16.72
2023-06-17T00:59:36.948Z,16.75
2023-06-17T01:02:04.869Z,16.72
2023-06-17T01:04:32.979Z,16.69
2023-06-17T01:07:04.440Z,16.65
2023-06-17T01:09:32.634Z,16.62
2023-06-17T01:12:00.448Z,16.60
2023-06-17T01:14:28.764Z,16.58
2023-06-17T01:16:56.681Z,16.56
2023-06-17T01:19:26.060Z,16.52
2023-06-17T01:21:57.001Z,16.51
2023-06-17T01:24:31.436Z,16.48
2023-06-17T01:27:01.160Z,16.43
2023-06-17T01:29:30.470Z,16.41
2023-06-17T01:31:58.945Z,16.39
2023-06-17T01:34:27.878Z,16.39
2023-06-17T01:36:55.641Z,16.38
2023-06-17T01:39:24.528Z,16.36
2023-06-17T01:41:54.696Z,16.34
2023-06-17T01:44:23.090Z,16.34
2023-06-17T01:46:51.191Z,16.33
2023-06-17T01:49:19.468Z,16.28
2023-06-17T01:51:47.304Z,16.26
2023-06-17T01:54:15.253Z,16.24
2023-06-17T01:56:43.268Z,16.22
2023-06-17T01:59:12.452Z,16.21
2023-06-17T02:01:40.227Z,16.21
2023-06-17T02:04:08.146Z,16.21
2023-06-17T02:06:39.952Z,16.22
2023-06-17T02:09:08.431Z,16.21
2023-06-17T02:11:36.164Z,16.19
2023-06-17T02:14:03.993Z,16.19
2023-06-17T02:16:33.453Z,16.09
2023-06-17T02:19:03.514Z,16.02
2023-06-17T02:21:31.996Z,15.93
2023-06-17T02:23:59.822Z,15.94
2023-06-17T02:26:27.737Z,15.91
2023-06-17T02:28:57.480Z,15.94
2023-06-17T02:31:27.579Z,15.95
2023-06-17T02:33:58.684Z,16.01
2023-06-17T02:36:26.653Z,16.01
2023-06-17T02:38:54.588Z,15.93
2023-06-17T02:41:22.404Z,15.92
2023-06-17T02:43:50.140Z,15.92
2023-06-17T02:46:18.356Z,15.91
2023-06-17T02:48:46.567Z,15.92
2023-06-17T02:51:16.200Z,15.92
2023-06-17T02:53:44.958Z,15.91
2023-06-17T02:56:15.488Z,15.88
2023-06-17T02:58:44.330Z,15.87
2023-06-17T03:01:14.107Z,15.85
2023-06-17T03:03:44.456Z,15.83
2023-06-17T03:06:14.224Z,15.82
2023-06-17T03:08:46.354Z,15.82
2023-06-17T03:11:14.139Z,15.81
2023-06-17T03:13:44.146Z,15.80
2023-06-17T03:16:19.828Z,15.79
2023-06-17T03:18:48.717Z,15.79
2023-06-17T03:21:18.903Z,15.78
2023-06-17T03:23:49.957Z,15.77
2023-06-17T03:26:19.167Z,15.76
2023-06-17T03:28:47.247Z,15.77
2023-06-17T03:31:21.573Z,15.77
2023-06-17T03:33:52.334Z,15.76
2023-06-17T03:36:20.734Z,15.76
2023-06-17T03:38:49.846Z,15.76
2023-06-17T03:41:18.160Z,15.76
2023-06-17T03:43:45.954Z,15.76
2023-06-17T03:46:13.818Z,15.75
2023-06-17T03:48:41.836Z,15.75
2023-06-17T03:51:09.629Z,15.74
2023-06-17T03:53:37.618Z,15.73
2023-06-17T03:56:07.082Z,15.73
2023-06-17T03:58:34.869Z,15.74
2023-06-17T04:01:02.743Z,15.74
2023-06-17T04:03:30.568Z,15.75
2023-06-17T04:06:00.795Z,15.75
2023-06-17T04:08:28.980Z,15.75
2023-06-17T04:10:56.707Z,15.76
2023-06-17T04:13:25.956Z,15.76
2023-06-17T04:15:54.334Z,15.77
2023-06-17T04:18:23.077Z,15.77
2023-06-17T04:20:57.330Z,15.76
2023-06-17T04:23:28.205Z,15.77
2023-06-17T04:25:57.881Z,15.75
2023-06-17T04:28:33.157Z,15.76
2023-06-17T04:31:02.579Z,15.78
2023-06-17T04:33:38.862Z,15.80
2023-06-17T04:36:09.424Z,15.83
2023-06-17T04:38:40.004Z,15.84
2023-06-17T04:41:10.076Z,15.88
2023-06-17T04:43:39.615Z,15.92
2023-06-17T04:46:10.861Z,15.97
2023-06-17T04:48:39.984Z,15.99
2023-06-17T04:51:08.679Z,16.00
2023-06-17T04:53:36.570Z,16.06
2023-06-17T04:56:05.871Z,16.12
2023-06-17T04:58:34.154Z,16.18
2023-06-17T05:01:21.385Z,16.23
2023-06-17T05:03:49.243Z,16.26
2023-06-17T05:06:17.272Z,16.34
2023-06-17T05:08:45.639Z,16.39
2023-06-17T05:11:14.782Z,16.43
2023-06-17T05:13:43.319Z,16.48
2023-06-17T05:16:11.205Z,16.52
2023-06-17T05:18:43.038Z,16.59
2023-06-17T05:21:11.797Z,16.58
2023-06-17T05:23:39.705Z,16.65
2023-06-17T05:26:08.790Z,16.73
2023-06-17T05:28:37.014Z,16.82
2023-06-17T05:31:05.140Z,16.88
2023-06-17T05:33:33.050Z,16.94
2023-06-17T05:36:02.583Z,17.00
2023-06-17T05:38:31.869Z,17.08
2023-06-17T05:40:59.672Z,17.15
2023-06-17T05:43:28.812Z,17.17
2023-06-17T05:45:57.886Z,17.29
2023-06-17T05:48:26.655Z,17.19
2023-06-17T05:50:55.161Z,17.19
2023-06-17T05:53:24.354Z,17.40
2023-06-17T05:55:53.360Z,17.61
2023-06-17T05:58:21.846Z,17.87
2023-06-17T06:00:58.214Z,17.96
2023-06-17T06:03:26.372Z,18.07
2023-06-17T06:05:54.472Z,17.99
2023-06-17T06:08:22.390Z,18.00
2023-06-17T06:10:51.779Z,18.00
2023-06-17T06:13:19.537Z,18.14
2023-06-17T06:15:47.630Z,18.06
2023-06-17T06:18:15.983Z,18.21
2023-06-17T06:20:46.967Z,18.38
2023-06-17T06:23:15.783Z,18.52
2023-06-17T06:25:43.540Z,18.61
2023-06-17T06:28:13.582Z,18.94
2023-06-17T06:30:43.035Z,18.89
2023-06-17T06:33:11.939Z,19.06
2023-06-17T06:35:39.813Z,19.70
2023-06-17T06:38:11.380Z,20.07
2023-06-17T06:40:39.221Z,20.29
2023-06-17T06:43:07.002Z,20.71
2023-06-17T06:45:51.031Z,20.87
2023-06-17T06:48:18.998Z,21.21
2023-06-17T06:50:46.771Z,21.53
2023-06-17T06:53:14.602Z,20.96
2023-06-17T06:55:42.406Z,20.65
2023-06-17T06:58:10.219Z,20.66
2023-06-17T07:00:38.007Z,20.50
2023-06-17T07:03:07.494Z,20.31
2023-06-17T07:05:35.386Z,20.25
2023-06-17T07:08:04.694Z,20.68
2023-06-17T07:10:34.606Z,21.08
2023-06-17T07:13:02.587Z,21.18
2023-06-17T07:15:30.409Z,21.59
2023-06-17T07:17:58.183Z,21.75
2023-06-17T07:20:27.501Z,21.60
2023-06-17T07:22:56.547Z,22.08
2023-06-17T07:25:24.431Z,22.09
2023-06-17T07:27:52.221Z,22.11
2023-06-17T07:30:20.311Z,22.29
2023-06-17T07:32:48.419Z,22.45
2023-06-17T07:35:16.434Z,22.49
2023-06-17T07:37:46.247Z,22.71
2023-06-17T07:40:17.098Z,22.88
2023-06-17T07:42:44.989Z,23.43
2023-06-17T07:45:12.923Z,23.47
2023-06-17T07:47:41.170Z,23.83
2023-06-17T07:50:10.257Z,23.94
2023-06-17T07:52:38.154Z,24.08
2023-06-17T07:55:09.632Z,24.19
2023-06-17T07:57:37.481Z,24.23
2023-06-17T08:00:11.133Z,23.69
2023-06-17T08:02:44.641Z,24.10
2023-06-17T08:05:12.613Z,24.15
2023-06-17T08:07:40.672Z,24.48
2023-06-17T08:10:10.543Z,24.67
2023-06-17T08:12:38.538Z,24.82
2023-06-17T08:15:07.019Z,25.19
2023-06-17T08:17:34.832Z,25.20
2023-06-17T08:20:03.874Z,25.47
2023-06-17T08:22:32.103Z,25.43
2023-06-17T08:25:03.140Z,25.61
2023-06-17T08:27:32.503Z,25.55
2023-06-17T08:30:00.682Z,25.64
2023-06-17T08:32:29.015Z,25.77
2023-06-17T08:34:57.211Z,25.89
2023-06-17T08:37:25.206Z,25.85
2023-06-17T08:39:54.009Z,25.93
2023-06-17T08:42:21.763Z,26.15
2023-06-17T08:44:50.954Z,26.32
2023-06-17T08:47:19.602Z,26.35
2023-06-17T08:49:48.154Z,26.45
2023-06-17T08:52:16.067Z,26.62
2023-06-17T08:54:44.800Z,26.68
2023-06-17T08:57:18.982Z,26.91
2023-06-17T08:59:47.089Z,27.29
2023-06-17T09:02:17.019Z,27.21
2023-06-17T09:04:45.308Z,27.40
2023-06-17T09:07:14.022Z,27.43
2023-06-17T09:09:41.838Z,27.11
2023-06-17T09:12:10.017Z,27.37
2023-06-17T09:14:38.258Z,27.20
2023-06-17T09:17:06.108Z,27.50
2023-06-17T09:19:35.262Z,27.32
2023-06-17T09:22:07.147Z,27.48
2023-06-17T09:24:34.986Z,27.53
2023-06-17T09:27:03.623Z,27.54
2023-06-17T09:29:43.773Z,27.96
2023-06-17T09:32:11.704Z,27.98
2023-06-17T09:34:41.616Z,27.78
2023-06-17T09:37:09.412Z,27.71
2023-06-17T09:39:37.151Z,27.62
2023-06-17T09:42:09.072Z,27.38
2023-06-17T09:44:38.266Z,26.88
2023-06-17T09:47:07.429Z,27.29
2023-06-17T09:49:36.987Z,27.78
2023-06-17T09:52:09.915Z,28.03
2023-06-17T09:54:37.928Z,28.23
2023-06-17T09:57:06.086Z,28.43
2023-06-17T09:59:33.908Z,28.35
2023-06-17T10:02:01.664Z,28.22
2023-06-17T10:04:29.436Z,28.42
2023-06-17T10:06:57.458Z,28.67
2023-06-17T10:09:28.142Z,28.67
2023-06-17T10:11:55.988Z,28.49
2023-06-17T10:14:24.578Z,28.36
2023-06-17T10:16:52.387Z,28.69
2023-06-17T10:19:20.528Z,28.78
2023-06-17T10:21:48.906Z,28.95
2023-06-17T10:24:16.778Z,28.83
2023-06-17T10:26:46.414Z,28.99
2023-06-17T10:29:15.171Z,28.92
2023-06-17T10:31:44.194Z,28.97
2023-06-17T10:34:15.656Z,29.09
2023-06-17T10:36:43.756Z,28.61
2023-06-17T10:39:12.222Z,28.41
2023-06-17T10:42:01.169Z,28.83
2023-06-17T10:44:34.367Z,28.48
2023-06-17T10:47:02.515Z,28.65
2023-06-17T10:49:38.123Z,28.29
2023-06-17T10:52:08.190Z,27.78
2023-06-17T10:54:35.970Z,27.87
2023-06-17T10:57:06.028Z,27.40
2023-06-17T10:59:34.091Z,26.89
2023-06-17T11:02:03.067Z,26.41
2023-06-17T11:04:31.793Z,26.85
2023-06-17T11:07:02.097Z,26.66
2023-06-17T11:09:30.481Z,26.12
2023-06-17T11:11:59.043Z,25.61
2023-06-17T11:14:28.516Z,25.32
2023-06-17T11:16:56.485Z,25.41
2023-06-17T11:19:24.345Z,25.42
2023-06-17T11:21:52.420Z,25.88
2023-06-17T11:24:20.497Z,26.22
2023-06-17T11:26:48.641Z,26.54
2023-06-17T11:29:16.890Z,26.73
2023-06-17T11:31:46.655Z,26.92
2023-06-17T11:34:15.221Z,26.99
2023-06-17T11:36:43.003Z,27.13
2023-06-17T11:39:11.393Z,27.33
2023-06-17T11:41:39.190Z,27.34
2023-06-17T11:44:07.207Z,27.15
2023-06-17T11:46:37.663Z,27.24
2023-06-17T11:49:08.460Z,27.44
2023-06-17T11:51:37.267Z,27.28
2023-06-17T11:54:05.839Z,27.48
2023-06-17T11:56:34.560Z,27.33
2023-06-17T11:59:02.344Z,27.20
2023-06-17T12:01:30.114Z,27.19
2023-06-17T12:03:58.225Z,27.33
2023-06-17T12:06:29.104Z,27.34
2023-06-17T12:08:58.160Z,27.41
2023-06-17T12:11:26.889Z,27.24
2023-06-17T12:13:55.680Z,27.20
2023-06-17T12:16:24.754Z,27.16
2023-06-17T12:18:53.026Z,27.00
2023-06-17T12:21:21.615Z,26.86
2023-06-17T12:23:52.239Z,26.63
2023-06-17T12:26:20.256Z,26.81
2023-06-17T12:28:48.626Z,26.61
2023-06-17T12:31:16.730Z,26.65
2023-06-17T12:33:44.706Z,26.59
2023-06-17T12:36:12.435Z,26.56
2023-06-17T12:38:40.608Z,26.38
2023-06-17T12:41:09.943Z,26.20
2023-06-17T12:43:39.869Z,26.15
2023-06-17T12:46:08.321Z,26.26
2023-06-17T12:48:36.401Z,26.19
2023-06-17T12:51:04.563Z,26.24
2023-06-17T12:53:32.335Z,26.39
2023-06-17T12:56:00.711Z,26.47
2023-06-17T12:58:29.907Z,26.64
2023-06-17T13:00:58.170Z,26.77
2023-06-17T13:03:27.016Z,26.93
2023-06-17T13:05:54.878Z,26.79
2023-06-17T13:08:22.863Z,26.69
2023-06-17T13:10:50.674Z,26.67
2023-06-17T13:13:18.553Z,26.70
2023-06-17T13:15:48.579Z,26.91
2023-06-17T13:18:16.432Z,27.03
2023-06-17T13:20:44.638Z,26.84
2023-06-17T13:23:12.617Z,26.94
2023-06-17T13:25:41.369Z,26.84
2023-06-17T13:28:09.125Z,26.63
2023-06-17T13:30:37.949Z,26.77
2023-06-17T13:33:07.831Z,26.57
2023-06-17T13:35:36.295Z,26.56
2023-06-17T13:38:04.573Z,26.51
2023-06-17T13:40:32.470Z,26.43
2023-06-17T13:43:00.226Z,26.51
2023-06-17T13:45:27.961Z,26.43
2023-06-17T13:47:55.708Z,26.17
2023-06-17T13:50:26.023Z,26.29
2023-06-17T13:52:54.585Z,26.23
2023-06-17T13:55:22.394Z,26.12
2023-06-17T13:57:50.171Z,25.99
2023-06-17T14:00:18.426Z,25.90
2023-06-17T14:02:46.239Z,25.86
2023-06-17T14:05:14.078Z,25.92
2023-06-17T14:07:43.390Z,25.89
2023-06-17T14:10:14.433Z,25.72
2023-06-17T14:12:42.290Z,25.73
2023-06-17T14:15:11.037Z,25.28
2023-06-17T14:17:38.995Z,25.19
2023-06-17T14:20:07.493Z,25.48
2023-06-17T14:22:35.267Z,25.71
2023-06-17T14:25:04.389Z,25.79
2023-06-17T14:27:36.229Z,25.77
2023-06-17T14:30:04.345Z,26.00
2023-06-17T14:32:32.457Z,25.92
2023-06-17T14:35:00.384Z,25.73
2023-06-17T14:37:30.048Z,25.77
2023-06-17T14:39:57.905Z,25.70
2023-06-17T14:42:30.117Z,25.59
2023-06-17T14:44:57.963Z,25.54
2023-06-17T14:47:25.997Z,25.40
2023-06-17T14:49:53.848Z,25.36
2023-06-17T14:52:21.562Z,25.45
2023-06-17T14:54:49.338Z,25.50
2023-06-17T14:57:17.088Z,25.24
2023-06-17T14:59:46.247Z,25.22
2023-06-17T15:02:22.096Z,24.93
2023-06-17T15:04:49.958Z,24.93
2023-06-17T15:07:17.684Z,24.95
2023-06-17T15:09:45.578Z,24.93
2023-06-17T15:12:15.393Z,24.88
2023-06-17T15:14:43.180Z,25.05
2023-06-17T15:17:12.655Z,25.11
2023-06-17T15:19:41.933Z,24.98
2023-06-17T15:22:09.967Z,24.82
2023-06-17T15:24:37.828Z,24.93
2023-06-17T15:27:06.825Z,25.23
2023-06-17T15:29:34.610Z,25.13
2023-06-17T15:32:02.370Z,25.13
2023-06-17T15:34:31.755Z,24.82
2023-06-17T15:36:59.515Z,24.61
2023-06-17T15:39:28.832Z,24.54
2023-06-17T15:41:56.550Z,24.38
2023-06-17T15:44:24.270Z,24.37
2023-06-17T15:46:52.177Z,24.44
2023-06-17T15:49:20.058Z,24.35
2023-06-17T15:51:49.285Z,24.09
2023-06-17T15:54:19.158Z,23.88
2023-06-17T15:56:47.942Z,24.01
2023-06-17T15:59:15.749Z,23.84
2023-06-17T16:01:43.632Z,23.66
2023-06-17T16:04:27.016Z,23.56
2023-06-17T16:07:00.385Z,23.50
2023-06-17T16:09:29.683Z,23.50
2023-06-17T16:11:57.509Z,23.38
2023-06-17T16:14:25.265Z,23.19
2023-06-17T16:16:55.271Z,23.05
2023-06-17T16:19:26.807Z,23.04
2023-06-17T16:21:58.141Z,22.88
2023-06-17T16:24:29.019Z,22.88
2023-06-17T16:26:57.602Z,22.82
2023-06-17T16:29:26.035Z,22.86
2023-06-17T16:31:54.278Z,22.92
2023-06-17T16:34:22.606Z,22.76
2023-06-17T16:36:50.951Z,22.58
2023-06-17T16:39:19.561Z,22.60
2023-06-17T16:41:49.269Z,22.48
2023-06-17T16:44:17.890Z,22.44
2023-06-17T16:46:47.671Z,22.46
2023-06-17T16:49:19.556Z,22.46
2023-06-17T16:51:48.337Z,22.37
2023-06-17T16:54:20.086Z,22.40
2023-06-17T16:56:53.579Z,22.32
2023-06-17T16:59:31.742Z,22.23
2023-06-17T17:02:01.261Z,22.31
2023-06-17T17:04:32.299Z,22.26
2023-06-17T17:07:02.149Z,22.17
2023-06-17T17:09:32.102Z,22.09
2023-06-17T17:12:04.902Z,22.05
2023-06-17T17:14:33.910Z,22.13
2023-06-17T17:17:02.193Z,22.03
2023-06-17T17:19:30.808Z,21.89
2023-06-17T17:21:58.650Z,21.88
2023-06-17T17:24:27.311Z,21.83
2023-06-17T17:26:55.047Z,21.90
2023-06-17T17:29:24.234Z,21.88
2023-06-17T17:31:51.986Z,21.93
2023-06-17T17:34:19.806Z,21.78
2023-06-17T17:36:47.771Z,21.67
2023-06-17T17:39:15.499Z,21.57
2023-06-17T17:41:43.298Z,21.42
2023-06-17T17:44:11.061Z,21.37
2023-06-17T17:46:40.596Z,21.33
2023-06-17T17:49:09.704Z,21.26
2023-06-17T17:51:37.551Z,21.23
2023-06-17T17:54:05.708Z,21.18
2023-06-17T17:56:33.548Z,21.26
2023-06-17T17:59:01.648Z,21.20
2023-06-17T18:01:29.462Z,21.20
2023-06-17T18:03:58.811Z,21.10
2023-06-17T18:06:26.800Z,21.09
2023-06-17T18:08:55.998Z,21.11
2023-06-17T18:11:23.810Z,20.98
2023-06-17T18:13:53.822Z,20.95
2023-06-17T18:16:23.204Z,20.87
2023-06-17T18:18:51.049Z,20.93
2023-06-17T18:21:20.477Z,20.96
2023-06-17T18:23:49.030Z,20.93
2023-06-17T18:26:17.470Z,20.96
2023-06-17T18:28:45.353Z,20.85
2023-06-17T18:31:13.133Z,20.95
2023-06-17T18:33:42.134Z,20.99
2023-06-17T18:36:09.993Z,20.98
2023-06-17T18:38:39.331Z,20.83
2023-06-17T18:41:07.464Z,20.67
2023-06-17T18:43:35.229Z,20.66
2023-06-17T18:46:03.044Z,20.62
2023-06-17T18:48:31.596Z,20.60
2023-06-17T18:50:59.390Z,20.53
2023-06-17T18:53:27.208Z,20.52
2023-06-17T18:55:56.355Z,20.44
2023-06-17T18:58:24.077Z,20.44
2023-06-17T19:00:51.850Z,20.49
2023-06-17T19:03:20.343Z,20.43
2023-06-17T19:05:48.275Z,20.38
2023-06-17T19:08:16.070Z,20.37
2023-06-17T19:10:43.862Z,20.39
2023-06-17T19:13:13.106Z,20.33
2023-06-17T19:15:45.237Z,20.39
2023-06-17T19:18:13.194Z,20.28
2023-06-17T19:20:42.139Z,20.28
2023-06-17T19:23:11.864Z,20.18
2023-06-17T19:25:39.663Z,20.19
2023-06-17T19:28:07.542Z,20.28
2023-06-17T19:30:36.700Z,20.24
2023-06-17T19:33:04.995Z,20.25
2023-06-17T19:35:33.093Z,20.22
2023-06-17T19:38:02.550Z,20.24
2023-06-17T19:40:30.308Z,20.14
2023-06-17T19:42:58.084Z,20.06
2023-06-17T19:45:29.495Z,19.99
2023-06-17T19:47:59.427Z,19.94
2023-06-17T19:50:27.688Z,19.93
2023-06-17T19:52:58.326Z,19.91
2023-06-17T19:55:26.310Z,19.93
2023-06-17T19:57:54.791Z,19.92
2023-06-17T20:00:26.126Z,19.89
2023-06-17T20:02:56.768Z,19.92
2023-06-17T20:05:26.555Z,19.90
2023-06-17T20:07:54.613Z,19.86
2023-06-17T20:10:22.896Z,19.88
2023-06-17T20:12:51.802Z,19.84
2023-06-17T20:15:19.829Z,19.75
2023-06-17T20:17:50.325Z,19.71
2023-06-17T20:20:19.162Z,19.61
2023-06-17T20:22:51.166Z,19.51
2023-06-17T20:25:19.324Z,19.47
2023-06-17T20:27:47.421Z,19.45
2023-06-17T20:30:16.073Z,19.38
2023-06-17T20:32:44.035Z,19.40
2023-06-17T20:35:11.910Z,19.42
2023-06-17T20:37:39.942Z,19.41
2023-06-17T20:40:10.222Z,19.30
2023-06-17T20:42:38.292Z,19.30
2023-06-17T20:45:07.194Z,19.27
2023-06-17T20:47:35.097Z,19.31
2023-06-17T20:50:03.065Z,19.27
2023-06-17T20:52:30.951Z,19.22
2023-06-17T20:54:58.849Z,19.05
2023-06-17T20:57:28.047Z,19.00
2023-06-17T20:59:56.632Z,18.94
2023-06-17T21:02:24.587Z,18.84
2023-06-17T21:04:52.605Z,18.82
2023-06-17T21:07:20.536Z,18.79
2023-06-17T21:09:49.477Z,18.72
2023-06-17T21:12:18.224Z,18.50
2023-06-17T21:14:48.572Z,18.31
2023-06-17T21:17:16.425Z,18.18
2023-06-17T21:19:44.461Z,18.21
2023-06-17T21:22:12.605Z,18.43
2023-06-17T21:24:40.961Z,18.32
2023-06-17T21:27:10.542Z,18.28
2023-06-17T21:29:38.531Z,18.31
2023-06-17T21:32:10.370Z,18.49
2023-06-17T21:34:38.674Z,18.50
2023-06-17T21:37:06.656Z,18.33
2023-06-17T21:39:34.585Z,18.38
2023-06-17T21:42:02.424Z,18.49
2023-06-17T21:44:33.395Z,18.60
2023-06-17T21:47:02.160Z,18.58
2023-06-17T21:49:31.273Z,18.53
2023-06-17T21:51:59.204Z,18.50
2023-06-17T21:54:27.145Z,18.56
2023-06-17T21:56:54.966Z,18.45
2023-06-17T21:59:23.212Z,18.51
2023-06-17T22:01:52.917Z,18.58
2023-06-17T22:04:21.117Z,18.62
2023-06-17T22:06:50.403Z,18.66
2023-06-17T22:09:18.828Z,18.74
2023-06-17T22:11:55.741Z,18.79
2023-06-17T22:14:23.729Z,18.86
2023-06-17T22:16:51.589Z,18.87
2023-06-17T22:19:19.955Z,18.91
2023-06-17T22:21:47.991Z,18.92
2023-06-17T22:24:17.372Z,18.88
2023-06-17T22:26:45.831Z,18.65
2023-06-17T22:29:14.150Z,18.61
2023-06-17T22:31:42.054Z,18.63
2023-06-17T22:34:09.981Z,18.70
2023-06-17T22:36:38.826Z,18.74
2023-06-17T22:39:06.861Z,18.78
2023-06-17T22:41:36.968Z,18.79
2023-06-17T22:44:08.295Z,18.82
2023-06-17T22:46:36.472Z,18.84
2023-06-17T22:49:04.455Z,18.86
2023-06-17T22:51:32.246Z,18.85
2023-06-17T22:54:00.062Z,18.84
2023-06-17T22:56:28.488Z,18.81
2023-06-17T22:58:57.670Z,18.78
2023-06-17T23:01:25.795Z,18.77
2023-06-17T23:03:53.610Z,18.79
2023-06-17T23:06:21.372Z,18.80
2023-06-17T23:08:49.137Z,18.81
2023-06-17T23:11:17.011Z,18.80
2023-06-17T23:13:44.831Z,18.79
2023-06-17T23:16:14.277Z,18.79
2023-06-17T23:18:42.038Z,18.75
2023-06-17T23:21:09.903Z,18.72
2023-06-17T23:23:37.663Z,18.71
2023-06-17T23:26:05.612Z,18.71
2023-06-17T23:28:34.259Z,18.61
2023-06-17T23:31:03.369Z,18.52
2023-06-17T23:33:33.891Z,18.52
2023-06-17T23:36:01.727Z,18.54
2023-06-17T23:38:33.397Z,18.59
2023-06-17T23:41:01.426Z,18.61
2023-06-17T23:43:29.152Z,18.62
2023-06-17T23:45:57.658Z,18.62
2023-06-17T23:48:25.545Z,18.61
2023-06-17T23:50:54.760Z,18.58
2023-06-17T23:53:22.607Z,18.56
2023-06-17T23:55:50.357Z,18.52
2023-06-17T23:58:18.155Z,18.46
